createdAt,value
2018-02-16T00:02:09.903Z,23.17
2018-02-16T00:04:37.515Z,23.50
2018-02-16T00:07:05.948Z,22.83
2018-02-16T00:09:34.518Z,21.60
2018-02-16T00:12:02.191Z,23.63
2018-02-16T00:14:30.844Z,23.83
2018-02-16T00:16:58.815Z,23.83
2018-02-16T00:19:26.849Z,23.60
2018-02-16T00:21:55.292Z,24.63
2018-02-16T00:24:23.727Z,24.17
2018-02-16T00:26:51.348Z,25.43
2018-02-16T00:29:19.651Z,24.87
2018-02-16T00:31:47.357Z,23.63
2018-02-16T00:34:15.050Z,26.00
2018-02-16T00:36:43.718Z,25.23
2018-02-16T00:39:11.367Z,24.83
2018-02-16T00:41:38.961Z,22.17
2018-02-16T00:44:07.408Z,24.17
2018-02-16T00:46:34.992Z,25.27
2018-02-16T00:49:02.624Z,24.83
2018-02-16T00:51:30.304Z,24.53
2018-02-16T00:53:57.942Z,25.27
2018-02-16T00:56:25.559Z,24.23
2018-02-16T00:58:54.056Z,26.30
2018-02-16T01:01:21.689Z,25.73
2018-02-16T01:03:50.066Z,25.00
2018-02-16T01:06:18.481Z,27.10
2018-02-16T01:08:46.097Z,27.80
2018-02-16T01:11:13.698Z,28.27
2018-02-16T01:13:41.393Z,27.13
2018-02-16T01:16:08.981Z,27.27
2018-02-16T01:18:36.592Z,28.23
2018-02-16T01:21:04.241Z,29.57
2018-02-16T01:23:31.864Z,30.10
2018-02-16T01:26:00.250Z,30.53
2018-02-16T01:28:28.670Z,29.77
2018-02-16T01:30:56.289Z,28.27
2018-02-16T01:33:24.634Z,29.30
2018-02-16T01:35:52.278Z,28.40
2018-02-16T01:38:19.876Z,29.10
2018-02-16T01:40:47.550Z,29.43
2018-02-16T01:43:15.919Z,28.95
2018-02-16T01:45:44.373Z,27.27
2018-02-16T01:48:11.979Z,27.13
2018-02-16T01:50:39.615Z,26.00
2018-02-16T01:53:08.062Z,27.57
2018-02-16T01:55:35.667Z,25.70
2018-02-16T01:58:04.019Z,26.67
2018-02-16T02:00:31.645Z,26.77
2018-02-16T02:02:59.319Z,25.87
2018-02-16T02:05:27.362Z,27.33
2018-02-16T02:07:55.007Z,24.93
2018-02-16T02:10:22.605Z,25.77
2018-02-16T02:12:50.195Z,26.47
2018-02-16T02:15:19.171Z,26.40
2018-02-16T02:17:46.773Z,27.03
2018-02-16T02:20:15.135Z,25.90
2018-02-16T02:22:43.556Z,27.17
2018-02-16T02:25:11.168Z,26.37
2018-02-16T02:27:38.774Z,24.33
2018-02-16T02:30:06.431Z,26.83
2018-02-16T02:32:34.025Z,26.63
2018-02-16T02:35:01.631Z,27.23
2018-02-16T02:37:30.011Z,27.97
2018-02-16T02:39:57.631Z,27.17
2018-02-16T02:42:26.055Z,28.10
2018-02-16T02:44:53.669Z,27.63
2018-02-16T02:47:21.272Z,25.63
2018-02-16T02:49:49.139Z,25.80
2018-02-16T02:52:16.762Z,27.60
2018-02-16T02:54:44.370Z,26.80
2018-02-16T02:57:12.025Z,27.00
2018-02-16T02:59:39.621Z,28.90
2018-02-16T03:02:07.227Z,29.10
2018-02-16T03:04:35.610Z,27.87
2018-02-16T03:07:03.204Z,28.30
2018-02-16T03:09:30.839Z,27.37
2018-02-16T03:11:58.577Z,27.47
2018-02-16T03:14:26.941Z,30.47
2018-02-16T03:16:55.220Z,28.37
2018-02-16T03:19:22.889Z,28.77
2018-02-16T03:21:54.022Z,30.77
2018-02-16T03:24:22.458Z,28.60
2018-02-16T03:26:50.068Z,30.83
2018-02-16T03:29:18.511Z,27.17
2018-02-16T03:34:20.946Z,28.80
2018-02-16T03:36:48.594Z,30.03
2018-02-16T03:39:17.490Z,26.27
2018-02-16T03:41:45.885Z,27.57
2018-02-16T03:44:14.250Z,26.20
2018-02-16T03:46:42.602Z,27.80
2018-02-16T03:49:10.256Z,29.00
2018-02-16T03:51:37.863Z,27.90
2018-02-16T03:54:06.235Z,28.27
2018-02-16T03:56:34.667Z,29.73
2018-02-16T03:59:02.722Z,29.40
2018-02-16T04:01:30.309Z,27.27
2018-02-16T04:03:59.474Z,28.90
2018-02-16T04:06:27.131Z,28.30
2018-02-16T04:08:54.733Z,31.33
2018-02-16T04:11:22.321Z,28.47
2018-02-16T04:13:50.709Z,29.93
2018-02-16T04:16:18.314Z,29.03
2018-02-16T04:18:45.921Z,28.57
2018-02-16T04:21:13.545Z,30.23
2018-02-16T04:23:41.149Z,29.67
2018-02-16T04:26:08.733Z,28.90
2018-02-16T04:28:36.397Z,30.43
2018-02-16T04:31:04.040Z,30.80
2018-02-16T04:33:31.625Z,32.03
2018-02-16T04:35:59.250Z,30.07
2018-02-16T04:38:26.838Z,33.43
2018-02-16T04:40:54.501Z,33.73
2018-02-16T04:43:22.166Z,32.40
2018-02-16T04:45:49.774Z,34.73
2018-02-16T04:48:18.142Z,32.43
2018-02-16T04:50:46.554Z,34.33
2018-02-16T04:53:14.182Z,33.50
2018-02-16T04:55:42.532Z,34.90
2018-02-16T04:58:10.185Z,31.93
2018-02-16T05:00:37.782Z,34.63
2018-02-16T05:03:06.151Z,35.43
2018-02-16T05:05:34.546Z,34.67
2018-02-16T05:08:02.150Z,34.27
2018-02-16T05:10:29.761Z,34.80
2018-02-16T05:12:58.435Z,35.87
2018-02-16T05:15:26.800Z,35.30
2018-02-16T05:17:54.426Z,34.50
2018-02-16T05:20:22.047Z,35.87
2018-02-16T05:22:50.407Z,35.20
2018-02-16T05:25:18.709Z,34.73
2018-02-16T05:27:46.358Z,35.27
2018-02-16T05:30:14.722Z,32.90
2018-02-16T05:32:43.816Z,35.10
2018-02-16T05:35:11.448Z,37.40
2018-02-16T05:37:39.065Z,34.83
2018-02-16T05:40:06.667Z,36.07
2018-02-16T05:42:34.293Z,35.00
2018-02-16T05:45:02.643Z,35.47
2018-02-16T05:47:31.018Z,35.87
2018-02-16T05:49:59.422Z,34.63
2018-02-16T05:52:27.043Z,35.87
2018-02-16T05:54:55.434Z,34.63
2018-02-16T05:57:23.834Z,35.57
2018-02-16T05:59:51.438Z,34.87
2018-02-16T06:02:19.035Z,35.37
2018-02-16T06:04:47.428Z,35.70
2018-02-16T06:07:15.023Z,36.73
2018-02-16T06:09:42.630Z,35.03
2018-02-16T06:12:11.039Z,37.00
2018-02-16T06:14:38.650Z,34.03
2018-02-16T06:17:06.259Z,35.70
2018-02-16T06:19:34.616Z,33.10
2018-02-16T06:22:02.238Z,32.37
2018-02-16T06:24:29.885Z,31.73
2018-02-16T06:26:57.474Z,31.23
2018-02-16T06:29:25.087Z,33.07
2018-02-16T06:31:52.716Z,32.57
2018-02-16T06:34:21.084Z,30.63
2018-02-16T06:36:49.452Z,29.60
2018-02-16T06:39:17.855Z,29.63
2018-02-16T06:41:45.452Z,29.67
2018-02-16T06:44:13.684Z,29.10
2018-02-16T06:46:41.345Z,28.43
2018-02-16T06:49:09.727Z,27.50
2018-02-16T06:51:37.317Z,29.33
2018-02-16T06:54:04.946Z,26.90
2018-02-16T06:56:32.609Z,27.13
2018-02-16T06:59:00.241Z,26.33
2018-02-16T07:01:27.868Z,25.60
2018-02-16T07:03:55.468Z,24.77
2018-02-16T07:06:23.894Z,22.57
2018-02-16T07:08:52.121Z,24.33
2018-02-16T07:11:20.539Z,24.33
2018-02-16T07:13:48.124Z,23.33
2018-02-16T07:16:16.582Z,21.33
2018-02-16T07:18:44.207Z,21.33
2018-02-16T07:21:13.274Z,19.93
2018-02-16T07:23:40.888Z,19.77
2018-02-16T07:26:08.570Z,21.27
2018-02-16T07:28:36.205Z,20.30
2018-02-16T07:31:04.076Z,20.13
2018-02-16T07:33:31.696Z,19.23
2018-02-16T07:35:59.341Z,20.57
2018-02-16T07:38:27.008Z,19.73
2018-02-16T07:40:55.374Z,19.60
2018-02-16T07:43:22.985Z,20.50
2018-02-16T07:45:50.628Z,18.77
2018-02-16T07:48:19.001Z,19.83
2018-02-16T07:50:47.365Z,19.67
2018-02-16T07:53:15.084Z,19.20
2018-02-16T07:55:42.684Z,19.33
2018-02-16T07:58:10.286Z,18.67
2018-02-16T08:00:37.942Z,19.17
2018-02-16T08:03:05.560Z,18.57
2018-02-16T08:05:33.193Z,17.03
2018-02-16T08:08:00.773Z,17.50
2018-02-16T08:10:28.567Z,18.23
2018-02-16T08:12:56.983Z,17.27
2018-02-16T08:15:24.594Z,16.50
2018-02-16T08:17:52.969Z,16.73
2018-02-16T08:20:20.622Z,16.30
2018-02-16T08:22:48.236Z,16.97
2018-02-16T08:25:15.872Z,15.73
2018-02-16T08:27:44.478Z,16.13
2018-02-16T08:30:12.181Z,15.47
2018-02-16T08:32:39.827Z,15.43
2018-02-16T08:35:07.818Z,14.00
2018-02-16T08:37:36.211Z,15.70
2018-02-16T08:40:04.981Z,14.23
2018-02-16T08:42:32.612Z,13.93
2018-02-16T08:45:00.372Z,12.70
2018-02-16T08:47:33.123Z,13.50
2018-02-16T08:50:00.794Z,12.70
2018-02-16T08:52:28.424Z,11.57
2018-02-16T08:54:56.831Z,12.00
2018-02-16T08:57:24.470Z,11.17
2018-02-16T08:59:52.127Z,11.33
2018-02-16T09:02:20.629Z,11.00
2018-02-16T09:04:48.260Z,10.50
2018-02-16T09:07:16.911Z,10.57
2018-02-16T09:09:44.527Z,9.47
2018-02-16T09:12:12.126Z,11.07
2018-02-16T09:14:39.951Z,10.53
2018-02-16T09:17:07.598Z,9.47
2018-02-16T09:19:36.654Z,10.20
2018-02-16T09:22:04.301Z,10.00
2018-02-16T09:24:31.910Z,9.90
2018-02-16T09:27:00.299Z,9.50
2018-02-16T09:29:28.710Z,11.00
2018-02-16T09:31:56.398Z,9.73
2018-02-16T09:34:24.015Z,10.73
2018-02-16T09:36:53.281Z,10.10
2018-02-16T09:39:23.592Z,10.70
2018-02-16T09:41:51.196Z,10.37
2018-02-16T09:44:19.522Z,9.30
2018-02-16T09:46:47.109Z,9.27
2018-02-16T09:49:15.480Z,9.30
2018-02-16T09:51:43.899Z,9.47
2018-02-16T09:54:11.504Z,9.73
2018-02-16T09:56:39.116Z,11.27
2018-02-16T09:59:06.757Z,9.97
2018-02-16T10:01:34.349Z,10.27
2018-02-16T10:04:01.998Z,9.90
2018-02-16T10:06:29.644Z,10.30
2018-02-16T10:08:57.265Z,9.50
2018-02-16T10:11:25.722Z,9.77
2018-02-16T10:13:53.306Z,9.40
2018-02-16T10:16:20.893Z,10.63
2018-02-16T10:18:48.539Z,10.20
2018-02-16T10:21:16.978Z,10.53
2018-02-16T10:23:44.608Z,10.93
2018-02-16T10:26:12.221Z,9.50
2018-02-16T10:28:39.859Z,9.80
2018-02-16T10:31:07.486Z,10.00
2018-02-16T10:33:35.154Z,10.40
2018-02-16T10:36:02.792Z,10.80
2018-02-16T10:38:31.161Z,10.03
2018-02-16T10:40:59.572Z,10.70
2018-02-16T10:43:27.250Z,10.03
2018-02-16T10:45:54.846Z,11.37
2018-02-16T10:48:22.458Z,10.87
2018-02-16T10:50:50.086Z,10.87
2018-02-16T10:53:19.010Z,10.90
2018-02-16T10:55:46.623Z,12.00
2018-02-16T10:58:14.263Z,11.50
2018-02-16T11:00:48.366Z,10.60
2018-02-16T11:03:21.673Z,11.70
2018-02-16T11:05:54.002Z,11.37
2018-02-16T11:08:27.258Z,11.30
2018-02-16T11:10:55.675Z,12.97
2018-02-16T11:13:23.283Z,11.70
2018-02-16T11:15:51.965Z,12.40
2018-02-16T11:18:19.641Z,12.87
2018-02-16T11:20:48.010Z,12.60
2018-02-16T11:23:16.377Z,11.67
2018-02-16T11:25:44.656Z,12.27
2018-02-16T11:28:12.253Z,12.13
2018-02-16T11:30:40.250Z,11.97
2018-02-16T11:33:07.888Z,12.23
2018-02-16T11:35:35.507Z,12.37
2018-02-16T11:38:03.181Z,12.33
2018-02-16T11:40:31.569Z,11.87
2018-02-16T11:43:00.053Z,11.90
2018-02-16T11:45:28.574Z,11.53
2018-02-16T11:47:56.237Z,12.47
2018-02-16T11:50:51.370Z,13.03
2018-02-16T11:53:20.851Z,12.50
2018-02-16T11:55:48.490Z,12.43
2018-02-16T11:58:16.120Z,11.90
2018-02-16T12:00:44.490Z,12.30
2018-02-16T12:03:12.869Z,14.00
2018-02-16T12:05:41.271Z,14.20
2018-02-16T12:08:08.930Z,12.67
2018-02-16T12:10:36.563Z,12.30
2018-02-16T12:13:05.094Z,13.63
2018-02-16T12:15:32.831Z,13.63
2018-02-16T12:18:00.559Z,13.60
2018-02-16T12:20:28.235Z,13.10
2018-02-16T12:22:56.610Z,13.10
2018-02-16T12:25:25.760Z,14.13
2018-02-16T12:27:53.527Z,13.37
2018-02-16T12:30:21.398Z,13.17
2018-02-16T12:32:49.095Z,12.63
2018-02-16T12:35:17.594Z,12.73
2018-02-16T12:37:45.324Z,11.93
2018-02-16T12:40:13.044Z,12.80
2018-02-16T12:42:40.695Z,12.60
2018-02-16T12:45:08.330Z,12.33
2018-02-16T12:47:36.770Z,11.10
2018-02-16T12:50:04.467Z,11.43
2018-02-16T12:52:33.478Z,11.03
2018-02-16T12:55:01.279Z,10.57
2018-02-16T12:57:29.803Z,10.10
2018-02-16T12:59:58.181Z,10.20
2018-02-16T13:02:26.597Z,11.60
2018-02-16T13:04:54.362Z,10.73
2018-02-16T13:07:22.141Z,10.03
2018-02-16T13:09:49.778Z,10.63
2018-02-16T13:12:18.048Z,10.60
2018-02-16T13:14:46.759Z,10.33
2018-02-16T13:17:14.415Z,10.20
2018-02-16T13:19:42.036Z,10.60
2018-02-16T13:22:10.396Z,9.93
2018-02-16T13:24:38.040Z,9.63
2018-02-16T13:27:05.642Z,8.57
2018-02-16T13:29:34.121Z,9.77
2018-02-16T13:32:02.603Z,9.27
2018-02-16T13:34:31.124Z,9.10
2018-02-16T13:36:58.721Z,8.67
2018-02-16T13:39:26.919Z,8.83
2018-02-16T13:41:54.691Z,8.40
2018-02-16T13:44:22.492Z,8.33
2018-02-16T13:46:50.394Z,7.53
2018-02-16T13:49:19.008Z,7.50
2018-02-16T13:51:46.690Z,7.37
2018-02-16T13:54:14.672Z,5.83
2018-02-16T13:56:42.986Z,7.60
2018-02-16T13:59:11.390Z,6.80
2018-02-16T14:01:39.181Z,7.10
2018-02-16T14:04:07.731Z,7.37
2018-02-16T14:06:35.429Z,6.80
2018-02-16T14:09:03.035Z,7.80
2018-02-16T14:11:31.512Z,7.27
2018-02-16T14:13:59.939Z,7.70
2018-02-16T14:16:27.588Z,7.00
2018-02-16T14:18:55.322Z,7.10
2018-02-16T14:21:23.834Z,6.77
2018-02-16T14:23:51.429Z,6.60
2018-02-16T14:26:19.303Z,6.30
2018-02-16T14:28:46.978Z,6.70
2018-02-16T14:31:15.527Z,6.20
2018-02-16T14:33:43.159Z,6.53
2018-02-16T14:36:11.026Z,6.53
2018-02-16T14:38:38.836Z,7.23
2018-02-16T14:41:07.222Z,6.47
2018-02-16T14:43:34.998Z,6.77
2018-02-16T14:46:03.518Z,6.40
2018-02-16T14:48:31.312Z,6.43
2018-02-16T14:50:58.957Z,6.60
2018-02-16T14:53:26.698Z,6.37
2018-02-16T14:55:54.316Z,6.70
2018-02-16T14:58:22.163Z,7.17
2018-02-16T15:00:49.981Z,6.37
2018-02-16T15:03:17.710Z,6.23
2018-02-16T15:05:45.376Z,6.27
2018-02-16T15:08:13.790Z,6.70
2018-02-16T15:10:41.578Z,7.00
2018-02-16T15:13:09.268Z,6.70
2018-02-16T15:15:37.931Z,6.57
2018-02-16T15:18:09.557Z,6.87
2018-02-16T15:20:37.344Z,6.53
2018-02-16T15:23:05.753Z,7.47
2018-02-16T15:25:34.395Z,6.40
2018-02-16T15:28:03.464Z,6.20
2018-02-16T15:30:31.389Z,6.90
2018-02-16T15:32:59.040Z,7.10
2018-02-16T15:35:26.699Z,6.63
2018-02-16T15:37:55.704Z,7.00
2018-02-16T15:40:23.334Z,6.77
2018-02-16T15:42:51.412Z,6.10
2018-02-16T15:45:19.096Z,6.87
2018-02-16T15:47:46.870Z,7.13
2018-02-16T15:50:14.862Z,6.73
2018-02-16T15:52:43.052Z,6.37
2018-02-16T15:55:11.595Z,7.50
2018-02-16T15:57:39.326Z,6.73
2018-02-16T16:00:07.703Z,6.80
2018-02-16T16:02:35.386Z,6.43
2018-02-16T16:05:03.151Z,7.47
2018-02-16T16:07:31.924Z,6.77
2018-02-16T16:10:00.247Z,7.40
2018-02-16T16:12:30.440Z,6.80
2018-02-16T16:14:58.048Z,6.70
2018-02-16T16:17:25.664Z,7.13
2018-02-16T16:19:53.337Z,7.67
2018-02-16T16:22:21.721Z,6.43
2018-02-16T16:24:50.136Z,6.50
2018-02-16T16:27:17.842Z,6.73
2018-02-16T16:29:45.478Z,6.87
2018-02-16T16:32:14.130Z,7.23
2018-02-16T16:34:41.754Z,7.30
2018-02-16T16:37:10.211Z,6.63
2018-02-16T16:39:38.646Z,6.67
2018-02-16T16:42:06.275Z,6.73
2018-02-16T16:44:34.690Z,7.00
2018-02-16T16:47:02.315Z,7.37
2018-02-16T16:49:30.700Z,6.83
2018-02-16T16:51:59.082Z,7.80
2018-02-16T16:54:27.438Z,7.27
2018-02-16T16:56:55.070Z,7.30
2018-02-16T16:59:22.701Z,8.23
2018-02-16T17:01:50.336Z,6.70
2018-02-16T17:04:18.721Z,7.20
2018-02-16T17:06:47.108Z,7.63
2018-02-16T17:09:15.476Z,7.03
2018-02-16T17:11:43.878Z,7.20
2018-02-16T17:14:11.479Z,7.00
2018-02-16T17:16:39.870Z,7.03
2018-02-16T17:19:08.322Z,6.93
2018-02-16T17:21:35.938Z,6.77
2018-02-16T17:24:04.689Z,7.50
2018-02-16T17:26:32.326Z,7.77
2018-02-16T17:28:59.929Z,7.80
2018-02-16T17:31:29.048Z,7.73
2018-02-16T17:33:56.666Z,7.77
2018-02-16T17:36:24.263Z,8.37
2018-02-16T17:38:52.026Z,7.43
2018-02-16T17:41:19.693Z,7.40
2018-02-16T17:43:47.358Z,7.73
2018-02-16T17:46:16.060Z,7.97
2018-02-16T17:48:43.681Z,8.37
2018-02-16T17:51:12.523Z,8.20
2018-02-16T17:53:40.464Z,8.23
2018-02-16T17:56:08.363Z,7.40
2018-02-16T17:58:35.991Z,7.93
2018-02-16T18:01:04.642Z,7.83
2018-02-16T18:03:36.985Z,7.97
2018-02-16T18:06:05.544Z,7.97
2018-02-16T18:08:33.233Z,8.90
2018-02-16T18:11:00.886Z,9.23
2018-02-16T18:13:29.292Z,8.50
2018-02-16T18:15:57.744Z,9.53
2018-02-16T18:18:25.386Z,8.90
2018-02-16T18:20:53.013Z,9.33
2018-02-16T18:23:20.816Z,13.83
2018-02-16T18:25:48.589Z,10.10
2018-02-16T18:28:16.280Z,8.77
2018-02-16T18:30:44.745Z,9.53
2018-02-16T18:33:13.133Z,9.97
2018-02-16T18:35:41.509Z,10.90
2018-02-16T18:38:09.106Z,9.77
2018-02-16T18:40:36.728Z,10.73
2018-02-16T18:43:05.191Z,10.77
2018-02-16T18:45:33.023Z,11.03
2018-02-16T18:48:00.705Z,11.67
2018-02-16T18:50:28.402Z,12.90
2018-02-16T18:52:56.139Z,11.17
2018-02-16T18:55:23.741Z,11.37
2018-02-16T18:57:52.107Z,12.73
2018-02-16T19:00:22.614Z,12.97
2018-02-16T19:02:52.209Z,10.50
2018-02-16T19:05:21.054Z,11.80
2018-02-16T19:07:48.747Z,13.00
2018-02-16T19:10:16.429Z,11.70
2018-02-16T19:12:44.372Z,12.87
2018-02-16T19:15:12.053Z,11.87
2018-02-16T19:17:39.668Z,12.57
2018-02-16T19:20:07.481Z,11.53
2018-02-16T19:22:35.192Z,12.20
2018-02-16T19:25:02.832Z,12.17
2018-02-16T19:27:31.365Z,11.80
2018-02-16T19:29:59.083Z,11.57
2018-02-16T19:32:26.923Z,11.87
2018-02-16T19:34:54.756Z,11.70
2018-02-16T19:37:22.475Z,12.07
2018-02-16T19:39:50.867Z,12.50
2018-02-16T19:42:19.950Z,12.67
2018-02-16T19:44:47.818Z,13.00
2018-02-16T19:47:15.599Z,11.97
2018-02-16T19:49:45.107Z,13.63
2018-02-16T19:52:12.808Z,13.67
2018-02-16T19:54:40.653Z,12.80
2018-02-16T19:57:08.404Z,12.57
2018-02-16T19:59:36.050Z,12.20
2018-02-16T20:02:03.757Z,13.40
2018-02-16T20:04:31.419Z,12.67
2018-02-16T20:06:59.087Z,12.97
2018-02-16T20:09:26.747Z,12.47
2018-02-16T20:11:54.724Z,15.07
2018-02-16T20:14:22.405Z,13.13
2018-02-16T20:16:50.038Z,14.87
2018-02-16T20:19:18.477Z,15.20
2018-02-16T20:21:46.109Z,15.03
2018-02-16T20:24:13.771Z,13.53
2018-02-16T20:26:42.150Z,13.50
2018-02-16T20:29:11.254Z,14.50
2018-02-16T20:31:38.984Z,14.30
2018-02-16T20:34:06.584Z,14.87
2018-02-16T20:36:34.208Z,15.83
2018-02-16T20:39:02.686Z,14.30
2018-02-16T20:41:31.109Z,15.07
2018-02-16T20:43:58.780Z,15.67
2018-02-16T20:46:26.414Z,14.77
2018-02-16T20:48:54.021Z,13.70
2018-02-16T20:51:21.743Z,14.23
2018-02-16T20:53:49.373Z,13.20
2018-02-16T20:56:17.749Z,13.27
2018-02-16T20:58:46.254Z,13.77
2018-02-16T21:01:13.846Z,13.47
2018-02-16T21:03:41.494Z,14.37
2018-02-16T21:06:09.083Z,13.60
2018-02-16T21:08:36.721Z,13.43
2018-02-16T21:11:04.362Z,13.07
2018-02-16T21:13:31.949Z,14.33
2018-02-16T21:15:59.576Z,14.87
2018-02-16T21:18:27.226Z,13.17
2018-02-16T21:20:54.919Z,13.43
2018-02-16T21:23:22.523Z,12.57
2018-02-16T21:25:50.929Z,13.53
2018-02-16T21:28:18.623Z,13.10
2018-02-16T21:30:47.077Z,12.97
2018-02-16T21:33:14.763Z,12.80
2018-02-16T21:35:42.382Z,13.27
2018-02-16T21:38:10.005Z,14.17
2018-02-16T21:40:37.670Z,13.17
2018-02-16T21:43:05.277Z,13.40
2018-02-16T21:45:32.874Z,13.90
2018-02-16T21:48:00.552Z,14.43
2018-02-16T21:50:28.221Z,12.67
2018-02-16T21:52:55.879Z,13.90
2018-02-16T21:55:23.476Z,12.97
2018-02-16T21:57:51.102Z,13.43
2018-02-16T22:00:19.593Z,13.07
2018-02-16T22:02:49.015Z,13.70
2018-02-16T22:05:17.090Z,13.73
2018-02-16T22:07:44.906Z,14.80
2018-02-16T22:10:12.592Z,12.73
2018-02-16T22:12:40.436Z,13.63
2018-02-16T22:15:08.095Z,12.60
2018-02-16T22:17:35.690Z,13.37
2018-02-16T22:20:03.315Z,13.57
2018-02-16T22:22:30.982Z,13.40
2018-02-16T22:24:58.615Z,13.77
2018-02-16T22:27:26.426Z,14.60
2018-02-16T22:29:54.841Z,15.40
2018-02-16T22:32:22.466Z,15.50
2018-02-16T22:34:50.081Z,14.57
2018-02-16T22:37:17.849Z,16.07
2018-02-16T22:39:45.512Z,15.23
2018-02-16T22:42:13.958Z,14.13
2018-02-16T22:44:41.577Z,14.30
2018-02-16T22:47:09.997Z,14.73
2018-02-16T22:49:37.789Z,15.80
2018-02-16T22:52:06.707Z,14.67
2018-02-16T22:54:35.430Z,15.30
2018-02-16T22:57:03.063Z,15.70
2018-02-16T22:59:30.747Z,15.03
2018-02-16T23:02:02.510Z,14.27
2018-02-16T23:04:30.146Z,16.20
2018-02-16T23:06:58.550Z,15.37
2018-02-16T23:09:26.175Z,16.63
2018-02-16T23:11:53.782Z,15.20
2018-02-16T23:14:21.553Z,14.87
2018-02-16T23:16:49.311Z,14.70
2018-02-16T23:19:18.159Z,14.27
2018-02-16T23:21:46.675Z,14.43
2018-02-16T23:24:14.529Z,12.70
2018-02-16T23:26:42.443Z,13.70
2018-02-16T23:29:10.457Z,13.60
2018-02-16T23:31:38.399Z,12.87
2018-02-16T23:34:06.004Z,11.93
2018-02-16T23:36:33.658Z,12.67
2018-02-16T23:39:02.115Z,13.27
2018-02-16T23:41:30.561Z,12.97
2018-02-16T23:43:59.112Z,13.10
2018-02-16T23:46:26.801Z,11.73
2018-02-16T23:48:54.418Z,14.33
2018-02-16T23:51:22.042Z,13.00
2018-02-16T23:53:50.297Z,12.63
2018-02-16T23:56:18.334Z,13.67
2018-02-16T23:58:46.752Z,13.20
